Time;durP1;ratioP1;P1;durP2;ratioP2;P2;SDS_P1;SDS_P2;PMS_P1;PMS_P2;Temp;Humidity;BMP_temperature;BMP_pressure;BME280_temperature;BME280_humidity;BME280_pressure;Samples;Min_cycle;Max_cycle;Signal;HPM_P1;HPM_P2
2024/04/20 00:00:54;;;;;;;1.02;0.65;;;22.60;66.80;;;;;;5437340;26;20466;-21
2024/04/20 00:03:25;;;;;;;0.93;0.65;;;22.70;67.00;;;;;;5419426;26;20243;-22
2024/04/20 00:05:53;;;;;;;0.80;0.60;;;22.30;66.70;;;;;;5438929;26;20338;-22
2024/04/20 00:08:26;;;;;;;0.83;0.60;;;22.50;67.00;;;;;;5419899;26;20585;-22
2024/04/20 00:10:55;;;;;;;1.10;0.80;;;22.50;67.30;;;;;;5458960;26;21093;-22
2024/04/20 00:13:29;;;;;;;0.90;0.60;;;22.30;66.90;;;;;;5451843;26;20333;-22
2024/04/20 00:16:03;;;;;;;0.98;0.70;;;22.60;67.40;;;;;;5437583;26;20659;-23
2024/04/20 00:18:33;;;;;;;1.15;0.70;;;22.50;67.30;;;;;;5443343;26;20269;-21
2024/04/20 00:21:02;;;;;;;0.90;0.60;;;22.50;67.40;;;;;;5448869;26;20648;-22
2024/04/20 00:23:41;;;;;;;0.90;0.57;;;22.60;67.60;;;;;;5427437;26;20269;-25
2024/04/20 00:26:22;;;;;;;0.90;0.60;;;22.40;67.40;;;;;;5440412;26;20348;-22
2024/04/20 00:28:56;;;;;;;1.00;0.70;;;22.30;67.40;;;;;;5432774;26;20330;-22
2024/04/20 00:31:26;;;;;;;0.90;0.60;;;22.10;67.40;;;;;;5423635;26;20673;-25
2024/04/20 00:33:54;;;;;;;0.90;0.60;;;22.30;67.60;;;;;;5433115;26;20334;-21
2024/04/20 00:36:25;;;;;;;0.90;0.60;;;22.30;67.80;;;;;;5421750;26;20238;-24
2024/04/20 00:38:56;;;;;;;1.25;0.70;;;22.20;68.10;;;;;;5442268;26;20674;-22
2024/04/20 00:41:31;;;;;;;1.13;0.70;;;21.90;68.10;;;;;;5438746;26;21124;-22
2024/04/20 00:44:05;;;;;;;0.90;0.50;;;22.20;68.50;;;;;;5439554;26;20233;-24
2024/04/20 00:46:44;;;;;;;1.15;0.90;;;22.20;68.30;;;;;;5432886;26;20246;-22
2024/04/20 00:49:14;;;;;;;1.70;0.85;;;21.80;67.80;;;;;;5444087;26;20801;-25
2024/04/20 00:51:46;;;;;;;0.90;0.60;;;21.80;68.20;;;;;;5427213;26;20238;-22
2024/04/20 00:54:23;;;;;;;1.20;0.70;;;22.60;69.80;;;;;;5422596;26;20291;-22
2024/04/20 00:56:56;;;;;;;0.80;0.50;;;22.10;68.20;;;;;;5434204;26;20575;-22
2024/04/20 00:59:31;;;;;;;0.88;0.60;;;22.10;68.60;;;;;;5432494;26;22745;-22
2024/04/20 01:01:59;;;;;;;1.00;0.60;;;21.80;68.20;;;;;;5438958;26;20630;-22
2024/04/20 01:04:28;;;;;;;1.55;0.60;;;21.80;68.30;;;;;;5426722;26;20235;-22
2024/04/20 01:06:58;;;;;;;0.88;0.60;;;21.90;68.40;;;;;;5427662;26;20363;-24
2024/04/20 01:09:27;;;;;;;1.35;0.90;;;22.20;69.00;;;;;;5442163;26;20226;-22
2024/04/20 01:11:58;;;;;;;0.90;0.60;;;22.20;69.00;;;;;;5438267;26;20226;-21
2024/04/20 01:14:32;;;;;;;0.90;0.60;;;21.80;68.60;;;;;;5423742;26;20234;-23
2024/04/20 01:17:03;;;;;;;0.90;0.60;;;21.60;68.60;;;;;;5428086;26;20264;-22
2024/04/20 01:19:36;;;;;;;0.90;0.60;;;21.90;68.90;;;;;;5436283;26;20604;-21
2024/04/20 01:22:08;;;;;;;0.90;0.60;;;21.60;68.80;;;;;;5428305;26;20265;-22
2024/04/20 01:24:40;;;;;;;0.90;0.70;;;21.70;69.20;;;;;;5426015;26;20266;-22
2024/04/20 01:27:11;;;;;;;1.00;0.60;;;21.60;68.80;;;;;;5434450;26;21951;-22
2024/04/20 01:29:42;;;;;;;1.35;0.65;;;21.90;69.20;;;;;;5420414;26;20947;-22
2024/04/20 01:32:15;;;;;;;0.95;0.60;;;21.50;68.80;;;;;;5428159;26;20676;-23
2024/04/20 01:34:44;;;;;;;0.90;0.68;;;21.50;68.90;;;;;;5435684;26;20248;-22
2024/04/20 01:37:21;;;;;;;0.90;0.50;;;21.40;68.80;;;;;;5429341;26;20556;-22
2024/04/20 01:39:52;;;;;;;0.90;0.60;;;21.50;68.90;;;;;;5430794;26;20241;-22
2024/04/20 01:42:33;;;;;;;0.90;0.60;;;22.40;70.00;;;;;;5441118;26;21523;-25
2024/04/20 01:45:03;;;;;;;0.90;0.60;;;21.40;69.80;;;;;;5424040;26;20330;-26
2024/04/20 01:47:33;;;;;;;1.65;0.70;;;21.80;69.40;;;;;;5421378;26;20281;-22
2024/04/20 01:50:02;;;;;;;1.02;0.65;;;21.80;69.60;;;;;;5436848;26;21150;-21
2024/04/20 01:52:33;;;;;;;0.90;0.60;;;21.90;69.80;;;;;;5438406;26;21551;-22
2024/04/20 01:55:02;;;;;;;0.90;0.68;;;21.50;69.40;;;;;;5428572;26;20318;-24
2024/04/20 01:57:36;;;;;;;0.98;0.65;;;21.60;69.60;;;;;;5434880;26;21080;-22
2024/04/20 02:00:05;;;;;;;0.90;0.65;;;21.60;69.80;;;;;;5425273;26;20238;-25
2024/04/20 02:02:34;;;;;;;0.90;0.65;;;21.30;69.60;;;;;;5432783;26;20289;-21
2024/04/20 02:05:04;;;;;;;0.90;0.60;;;21.60;69.90;;;;;;5442662;26;20809;-21
2024/04/20 02:07:32;;;;;;;0.90;0.60;;;21.60;69.90;;;;;;5430499;26;20246;-22
2024/04/20 02:10:05;;;;;;;1.13;0.60;;;21.60;69.90;;;;;;5435959;26;21196;-22
2024/04/20 02:12:36;;;;;;;0.90;0.68;;;21.60;70.00;;;;;;5418667;26;21017;-22
2024/04/20 02:15:12;;;;;;;0.88;0.60;;;21.60;70.00;;;;;;5428948;26;20257;-23
2024/04/20 02:17:46;;;;;;;1.42;0.63;;;21.60;70.10;;;;;;5432672;26;20238;-22
2024/04/20 02:20:25;;;;;;;1.00;0.70;;;22.40;71.00;;;;;;5434357;26;20238;-23
2024/04/20 02:22:57;;;;;;;1.02;0.60;;;21.10;69.60;;;;;;5430762;26;20841;-22
2024/04/20 02:25:32;;;;;;;0.90;0.60;;;21.10;69.70;;;;;;5445319;26;20277;-22
2024/04/20 02:28:04;;;;;;;0.80;0.60;;;21.40;70.50;;;;;;5423173;26;20696;-23
2024/04/20 02:30:35;;;;;;;0.90;0.60;;;22.00;70.90;;;;;;5427665;26;20301;-23
2024/04/20 02:33:03;;;;;;;0.82;0.55;;;20.90;69.60;;;;;;5426541;26;20242;-24
2024/04/20 02:35:33;;;;;;;0.90;0.60;;;21.40;70.50;;;;;;5429073;26;21234;-22
2024/04/20 02:38:08;;;;;;;1.00;0.70;;;21.90;71.50;;;;;;5418159;26;20476;-21
2024/04/20 02:40:42;;;;;;;0.90;0.60;;;21.40;70.90;;;;;;5416182;26;20234;-22
2024/04/20 02:43:13;;;;;;;0.80;0.60;;;21.40;70.70;;;;;;5440091;26;20327;-25
2024/04/20 02:45:46;;;;;;;0.90;0.60;;;21.70;71.20;;;;;;5437206;26;20670;-21
2024/04/20 02:48:26;;;;;;;0.80;0.60;;;21.40;70.80;;;;;;5434026;26;20243;-23
2024/04/20 02:50:59;;;;;;;0.88;0.60;;;21.40;71.00;;;;;;5434628;26;20249;-21
2024/04/20 02:53:27;;;;;;;0.90;0.60;;;21.30;70.70;;;;;;5417802;26;20331;-21
2024/04/20 02:55:56;;;;;;;0.90;0.60;;;21.10;70.80;;;;;;5433908;26;20285;-22
2024/04/20 02:58:27;;;;;;;0.98;0.68;;;21.40;71.00;;;;;;5429885;26;20338;-23
2024/04/20 03:00:57;;;;;;;0.90;0.60;;;21.40;71.00;;;;;;5428995;26;22415;-23
2024/04/20 03:03:32;;;;;;;0.82;0.57;;;21.40;71.00;;;;;;5422594;26;21159;-22
2024/04/20 03:06:02;;;;;;;0.85;0.60;;;21.30;71.00;;;;;;5436424;26;20264;-28
2024/04/20 03:08:31;;;;;;;1.23;0.60;;;21.30;71.10;;;;;;5411338;26;20246;-22
2024/04/20 03:11:00;;;;;;;0.90;0.60;;;21.30;71.20;;;;;;5438774;26;20273;-21
2024/04/20 03:13:41;;;;;;;;;;;;;;;;;;;;;
2024/04/20 03:16:12;;;;;;;1.00;0.70;;;20.90;71.10;;;;;;5429280;26;20310;-22
2024/04/20 03:18:44;;;;;;;1.00;0.60;;;21.20;71.40;;;;;;5446118;26;20234;-22
2024/04/20 03:21:14;;;;;;;0.80;0.60;;;21.80;72.00;;;;;;5423319;26;20295;-22
2024/04/20 03:23:50;;;;;;;1.00;0.60;;;21.20;71.30;;;;;;5420448;26;20474;-22
2024/04/20 03:26:20;;;;;;;0.80;0.60;;;21.20;71.50;;;;;;5434681;26;20334;-22
2024/04/20 03:28:51;;;;;;;0.90;0.60;;;21.20;71.50;;;;;;5433048;26;20334;-22
2024/04/20 03:31:24;;;;;;;0.90;0.70;;;21.30;71.70;;;;;;5432688;26;20246;-22
2024/04/20 03:34:05;;;;;;;0.82;0.60;;;21.80;72.10;;;;;;5431779;26;20833;-21
2024/04/20 03:36:39;;;;;;;1.00;0.60;;;21.80;72.10;;;;;;5436138;26;20230;-22
2024/04/20 03:39:22;;;;;;;0.93;0.60;;;21.00;71.40;;;;;;5433827;26;20364;-23
2024/04/20 03:41:51;;;;;;;1.45;0.70;;;21.20;71.60;;;;;;5434278;26;20278;-21
2024/04/20 03:44:25;;;;;;;0.98;0.65;;;20.80;71.10;;;;;;5440657;26;20230;-22
2024/04/20 03:46:56;;;;;;;0.90;0.60;;;20.90;71.50;;;;;;5414641;26;20282;-27
2024/04/20 03:49:25;;;;;;;0.93;0.63;;;21.10;71.80;;;;;;5438033;26;20258;-21
2024/04/20 03:51:55;;;;;;;1.00;0.60;;;21.10;71.90;;;;;;5430850;26;20742;-22
2024/04/20 03:54:23;;;;;;;0.90;0.60;;;21.10;72.00;;;;;;5420381;26;20347;-21
2024/04/20 03:56:59;;;;;;;1.30;0.60;;;20.70;71.50;;;;;;5432228;26;22904;-22
2024/04/20 03:59:34;;;;;;;0.90;0.68;;;21.10;71.80;;;;;;5431962;26;20361;-22
2024/04/20 04:02:06;;;;;;;0.90;0.70;;;20.80;71.60;;;;;;5431971;26;20261;-22
2024/04/20 04:04:44;;;;;;;0.90;0.60;;;21.10;72.00;;;;;;5431268;26;22448;-22
2024/04/20 04:07:12;;;;;;;1.00;0.60;;;21.40;72.50;;;;;;5442883;26;20285;-23
2024/04/20 04:09:40;;;;;;;0.80;0.60;;;20.70;71.60;;;;;;5434768;26;20889;-22
2024/04/20 04:12:09;;;;;;;1.38;0.73;;;21.10;72.20;;;;;;5435188;26;20222;-24
2024/04/20 04:14:40;;;;;;;0.80;0.60;;;21.10;72.00;;;;;;5433432;26;20246;-22
2024/04/20 04:17:18;;;;;;;0.90;0.65;;;21.00;71.90;;;;;;5436477;26;20243;-22
2024/04/20 04:19:48;;;;;;;0.80;0.55;;;21.00;72.10;;;;;;5410208;26;22215;-21
2024/04/20 04:22:31;;;;;;;0.90;0.60;;;20.70;71.80;;;;;;5424802;26;20338;-22
2024/04/20 04:25:08;;;;;;;1.10;0.70;;;21.00;72.10;;;;;;5431096;26;20290;-22
2024/04/20 04:27:39;;;;;;;0.80;0.50;;;20.70;71.80;;;;;;5441019;26;20232;-21
2024/04/20 04:30:18;;;;;;;0.90;0.60;;;21.00;72.40;;;;;;5436973;26;21006;-22
2024/04/20 04:32:49;;;;;;;0.80;0.60;;;21.60;73.30;;;;;;5419754;26;20363;-24
2024/04/20 04:35:19;;;;;;;0.80;0.57;;;20.80;72.00;;;;;;5443528;26;20735;-22
2024/04/20 04:37:48;;;;;;;0.80;0.60;;;21.00;72.50;;;;;;5429381;26;20260;-22
2024/04/20 04:40:17;;;;;;;1.65;0.60;;;21.00;72.50;;;;;;5425579;26;21077;-21
2024/04/20 04:42:51;;;;;;;0.90;0.60;;;21.30;72.90;;;;;;5434282;26;20350;-22
2024/04/20 04:45:30;;;;;;;1.05;0.60;;;21.00;72.30;;;;;;5442764;26;20710;-21
2024/04/20 04:48:04;;;;;;;0.80;0.50;;;21.00;72.30;;;;;;5423595;26;20226;-22
2024/04/20 04:50:37;;;;;;;1.10;0.73;;;20.70;72.10;;;;;;5425127;26;20233;-22
2024/04/20 04:53:05;;;;;;;1.00;0.60;;;20.80;72.30;;;;;;5431420;26;20343;-21
2024/04/20 04:55:34;;;;;;;1.00;0.70;;;21.00;72.60;;;;;;5445982;26;20591;-25
2024/04/20 04:58:02;;;;;;;1.20;0.60;;;20.90;72.60;;;;;;5439485;26;20738;-23
2024/04/20 05:00:41;;;;;;;0.90;0.63;;;20.80;72.50;;;;;;5434326;26;20511;-22
2024/04/20 05:03:10;;;;;;;1.20;0.68;;;20.90;72.70;;;;;;5432614;26;20289;-23
2024/04/20 05:05:41;;;;;;;0.90;0.60;;;20.90;73.10;;;;;;5433523;26;20951;-21
2024/04/20 05:08:09;;;;;;;1.17;0.70;;;20.90;73.60;;;;;;5411937;26;20231;-24
2024/04/20 05:10:38;;;;;;;1.00;0.68;;;20.90;72.80;;;;;;5429028;26;21205;-21
2024/04/20 05:13:26;;;;;;;0.90;0.60;;;20.80;72.70;;;;;;5434559;26;20261;-22
2024/04/20 05:15:56;;;;;;;1.00;0.60;;;20.90;73.50;;;;;;5433758;26;20246;-21
2024/04/20 05:18:29;;;;;;;0.90;0.60;;;20.70;72.80;;;;;;5433726;26;20238;-22
2024/04/20 05:21:01;;;;;;;0.80;0.50;;;20.60;72.50;;;;;;5427624;26;20555;-21
2024/04/20 05:23:35;;;;;;;0.90;0.60;;;20.90;72.90;;;;;;5428057;26;20226;-24
2024/04/20 05:26:05;;;;;;;0.85;0.60;;;20.90;72.80;;;;;;5435601;26;20230;-22
2024/04/20 05:28:42;;;;;;;0.90;0.60;;;20.60;72.60;;;;;;5427439;26;21556;-22
2024/04/20 05:31:13;;;;;;;1.20;0.80;;;20.90;72.90;;;;;;5422122;26;20918;-22
2024/04/20 05:33:42;;;;;;;0.95;0.70;;;20.90;72.90;;;;;;5445068;26;20226;-22
2024/04/20 05:36:12;;;;;;;1.00;0.60;;;21.40;73.60;;;;;;5436251;26;21150;-21
2024/04/20 05:38:50;;;;;;;0.90;0.60;;;20.80;73.10;;;;;;5430833;26;20238;-23
2024/04/20 05:41:26;;;;;;;0.90;0.60;;;20.80;73.00;;;;;;5441962;26;20589;-22
2024/04/20 05:44:01;;;;;;;1.00;0.70;;;20.90;73.40;;;;;;5437028;26;20271;-21
2024/04/20 05:46:40;;;;;;;0.88;0.60;;;20.80;73.00;;;;;;5416677;26;20233;-22
2024/04/20 05:49:09;;;;;;;1.27;0.60;;;20.70;72.90;;;;;;5436694;26;20226;-21
2024/04/20 05:51:41;;;;;;;0.88;0.57;;;20.90;73.10;;;;;;5424599;26;20872;-22
2024/04/20 05:54:12;;;;;;;0.90;0.60;;;20.90;73.10;;;;;;5423966;26;20243;-22
2024/04/20 05:56:42;;;;;;;0.90;0.60;;;21.10;73.30;;;;;;5428941;26;20366;-22
2024/04/20 05:59:11;;;;;;;1.00;0.70;;;21.00;73.10;;;;;;5443362;26;21446;-21
2024/04/20 06:01:41;;;;;;;0.80;0.60;;;20.90;73.10;;;;;;5429973;26;20345;-25
2024/04/20 06:04:16;;;;;;;1.00;0.60;;;20.90;72.90;;;;;;5432981;26;20877;-21
2024/04/20 06:06:48;;;;;;;0.85;0.60;;;20.90;72.90;;;;;;5429054;26;20265;-22
2024/04/20 06:09:18;;;;;;;1.55;0.60;;;20.90;72.80;;;;;;5433657;26;20334;-24
2024/04/20 06:11:49;;;;;;;0.85;0.60;;;20.80;72.90;;;;;;5428724;26;20302;-24
2024/04/20 06:14:17;;;;;;;0.90;0.60;;;21.30;73.50;;;;;;5429555;26;20239;-24
2024/04/20 06:16:53;;;;;;;0.90;0.60;;;21.00;73.30;;;;;;5432873;26;20226;-23
2024/04/20 06:19:25;;;;;;;0.80;0.60;;;20.80;72.90;;;;;;5429251;26;20358;-22
2024/04/20 06:21:56;;;;;;;0.90;0.60;;;20.40;72.50;;;;;;5431419;26;21025;-24
2024/04/20 06:24:31;;;;;;;1.10;0.70;;;20.30;72.50;;;;;;5433721;26;20382;-23
2024/04/20 06:26:59;;;;;;;1.00;0.60;;;20.80;72.90;;;;;;5430363;26;20279;-21
2024/04/20 06:29:33;;;;;;;0.80;0.60;;;20.60;72.90;;;;;;5432498;26;20355;-22
2024/04/20 06:32:06;;;;;;;1.02;0.63;;;21.60;74.40;;;;;;5420933;26;20238;-21
2024/04/20 06:34:35;;;;;;;1.00;0.60;;;20.80;73.10;;;;;;5437549;26;20282;-22
2024/04/20 06:37:06;;;;;;;0.90;0.60;;;20.90;73.40;;;;;;5421071;26;20284;-22
2024/04/20 06:39:36;;;;;;;0.80;0.60;;;20.80;73.20;;;;;;5435592;26;20238;-22
2024/04/20 06:42:06;;;;;;;0.80;0.60;;;20.80;73.20;;;;;;5427984;26;22502;-22
2024/04/20 06:44:37;;;;;;;0.90;0.60;;;20.80;73.40;;;;;;5441963;26;20311;-22
2024/04/20 06:47:12;;;;;;;0.80;0.60;;;20.90;73.30;;;;;;5431296;26;20234;-22
2024/04/20 06:49:44;;;;;;;0.90;0.70;;;20.90;73.20;;;;;;5433648;26;20225;-22
2024/04/20 06:52:13;;;;;;;0.80;0.60;;;20.80;73.00;;;;;;5417028;26;20231;-22
2024/04/20 06:54:44;;;;;;;1.10;0.60;;;20.90;72.90;;;;;;5434256;26;20264;-21
2024/04/20 06:57:15;;;;;;;0.90;0.60;;;21.00;72.90;;;;;;5435200;26;20265;-21
2024/04/20 06:59:50;;;;;;;0.80;0.60;;;21.20;73.00;;;;;;5436101;26;20225;-22
2024/04/20 07:02:25;;;;;;;0.90;0.60;;;21.10;72.70;;;;;;5424373;26;20269;-22
2024/04/20 07:04:59;;;;;;;0.90;0.60;;;21.20;72.60;;;;;;5432551;26;20222;-21
2024/04/20 07:07:29;;;;;;;0.90;0.70;;;21.10;72.30;;;;;;5439074;26;20242;-24
2024/04/20 07:10:01;;;;;;;1.10;0.70;;;21.30;72.40;;;;;;5432745;26;20786;-22
2024/04/20 07:12:32;;;;;;;1.00;0.60;;;21.40;72.30;;;;;;5430172;26;20230;-22
2024/04/20 07:15:03;;;;;;;4.13;0.70;;;21.40;72.10;;;;;;5441098;26;20747;-22
2024/04/20 07:17:34;;;;;;;0.90;0.60;;;22.00;72.50;;;;;;5430282;26;20755;-23
2024/04/20 07:20:04;;;;;;;1.00;0.70;;;21.50;71.80;;;;;;5439463;26;21069;-22
2024/04/20 07:22:34;;;;;;;0.90;0.60;;;21.50;71.60;;;;;;5429581;26;20272;-23
2024/04/20 07:25:04;;;;;;;1.80;0.70;;;21.60;71.60;;;;;;5450771;26;20354;-25
2024/04/20 07:27:37;;;;;;;0.90;0.60;;;21.30;71.00;;;;;;5438180;26;20231;-22
2024/04/20 07:30:09;;;;;;;0.90;0.60;;;21.50;71.00;;;;;;5423694;26;20246;-21
2024/04/20 07:32:46;;;;;;;0.80;0.60;;;21.80;71.00;;;;;;5436290;26;20534;-22
2024/04/20 07:35:17;;;;;;;1.65;0.70;;;21.70;70.70;;;;;;5454941;26;20234;-23
2024/04/20 07:37:50;;;;;;;0.90;0.60;;;22.20;71.00;;;;;;5454401;26;20231;-22
2024/04/20 07:40:25;;;;;;;0.90;0.60;;;21.70;70.20;;;;;;5438753;26;21381;-23
2024/04/20 07:42:56;;;;;;;0.93;0.63;;;22.00;71.20;;;;;;5423225;26;20262;-22
2024/04/20 07:45:30;;;;;;;0.90;0.60;;;21.90;70.00;;;;;;5433847;26;20277;-23
2024/04/20 07:48:05;;;;;;;0.80;0.50;;;22.00;70.00;;;;;;5436548;26;20264;-22
2024/04/20 07:50:35;;;;;;;0.97;0.63;;;21.80;69.30;;;;;;5435850;26;20523;-24
2024/04/20 07:53:11;;;;;;;0.90;0.60;;;22.00;69.20;;;;;;5405002;26;20495;-23
2024/04/20 07:55:55;;;;;;;1.00;0.60;;;22.20;69.20;;;;;;5436343;26;20238;-22
2024/04/20 07:58:29;;;;;;;1.47;0.60;;;22.00;68.70;;;;;;5414309;26;21081;-24
2024/04/20 08:01:10;;;;;;;0.90;0.60;;;22.40;68.90;;;;;;5440513;26;20459;-22
2024/04/20 08:03:51;;;;;;;1.00;0.70;;;22.40;68.60;;;;;;5430056;26;20467;-22
2024/04/20 08:06:26;;;;;;;1.00;0.60;;;22.70;68.70;;;;;;5426753;26;20577;-25
2024/04/20 08:09:02;;;;;;;0.90;0.57;;;22.70;68.50;;;;;;5410405;26;20439;-23
2024/04/20 08:11:33;;;;;;;2.90;0.70;;;22.50;68.90;;;;;;5428718;26;20527;-23
2024/04/20 08:14:06;;;;;;;2.70;0.70;;;22.40;67.80;;;;;;5415845;26;21255;-21
2024/04/20 08:16:37;;;;;;;1.03;0.70;;;22.30;68.00;;;;;;5436865;26;21378;-25
2024/04/20 08:19:12;;;;;;;1.00;0.70;;;22.60;67.90;;;;;;5430790;26;20574;-23
2024/04/20 08:21:42;;;;;;;1.10;0.87;;;22.70;66.90;;;;;;5430878;26;21329;-22
2024/04/20 08:24:16;;;;;;;1.00;0.70;;;22.70;67.00;;;;;;5441432;26;20463;-22
2024/04/20 08:26:47;;;;;;;2.70;0.80;;;22.40;66.00;;;;;;5416535;26;20463;-22
2024/04/20 08:29:15;;;;;;;0.90;0.60;;;22.80;66.10;;;;;;5437835;26;20463;-23
2024/04/20 08:31:44;;;;;;;5.20;0.70;;;22.80;66.00;;;;;;5423078;26;20575;-24
2024/04/20 08:34:19;;;;;;;1.20;0.80;;;22.80;65.60;;;;;;5426598;26;21128;-22
2024/04/20 08:36:49;;;;;;;1.20;0.70;;;22.90;65.60;;;;;;5433687;26;21277;-23
2024/04/20 08:39:19;;;;;;;0.90;0.70;;;22.90;65.20;;;;;;5432902;26;21038;-21
2024/04/20 08:41:57;;;;;;;1.30;0.70;;;23.00;65.00;;;;;;5424630;26;20576;-23
2024/04/20 08:44:36;;;;;;;1.00;0.70;;;22.80;64.50;;;;;;5448379;26;20527;-23
2024/04/20 08:47:12;;;;;;;1.77;0.80;;;23.10;64.60;;;;;;5427708;26;20858;-24
2024/04/20 08:49:50;;;;;;;2.10;0.73;;;23.10;64.20;;;;;;5435623;26;20522;-24
2024/04/20 08:52:25;;;;;;;1.60;0.70;;;23.50;64.50;;;;;;5417858;26;20584;-23
2024/04/20 08:54:57;;;;;;;1.00;0.70;;;23.50;64.40;;;;;;5422493;26;20585;-25
2024/04/20 08:57:35;;;;;;;0.80;0.60;;;23.20;64.00;;;;;;5437218;26;20463;-21
2024/04/20 09:00:08;;;;;;;1.00;0.60;;;23.30;63.80;;;;;;5434394;26;20531;-23
2024/04/20 09:02:42;;;;;;;0.90;0.60;;;23.70;64.00;;;;;;5430653;26;21294;-23
2024/04/20 09:05:14;;;;;;;1.00;0.60;;;23.70;63.70;;;;;;5438076;26;20459;-22
2024/04/20 09:07:42;;;;;;;0.90;0.60;;;23.30;63.10;;;;;;5434819;26;20471;-23
2024/04/20 09:10:13;;;;;;;1.00;0.70;;;23.40;63.10;;;;;;5438097;26;20468;-22
2024/04/20 09:12:48;;;;;;;0.90;0.63;;;23.40;63.60;;;;;;5427610;26;20648;-23
2024/04/20 09:15:19;;;;;;;1.03;0.70;;;23.50;62.70;;;;;;5427232;26;20468;-22
2024/04/20 09:17:48;;;;;;;0.90;0.60;;;23.50;62.60;;;;;;5430310;26;20459;-22
2024/04/20 09:20:29;;;;;;;0.90;0.70;;;23.60;62.30;;;;;;5431188;26;20454;-23
2024/04/20 09:23:07;;;;;;;0.80;0.60;;;23.60;62.10;;;;;;5409856;26;21187;-26
2024/04/20 09:25:38;;;;;;;2.93;1.00;;;23.70;62.10;;;;;;5427786;26;20967;-22
2024/04/20 09:28:12;;;;;;;1.07;0.67;;;24.10;62.50;;;;;;5421037;26;20541;-26
2024/04/20 09:30:45;;;;;;;0.90;0.60;;;23.50;61.60;;;;;;5436839;26;21302;-24
2024/04/20 09:33:17;;;;;;;1.10;0.60;;;23.60;61.60;;;;;;5417848;26;20803;-24
2024/04/20 09:35:55;;;;;;;0.90;0.60;;;23.50;62.10;;;;;;5445494;26;20585;-24
2024/04/20 09:38:25;;;;;;;0.90;0.60;;;23.70;61.50;;;;;;5434033;26;20463;-23
2024/04/20 09:40:56;;;;;;;1.03;0.60;;;24.00;62.60;;;;;;5437053;26;20857;-24
2024/04/20 09:43:27;;;;;;;0.97;0.60;;;23.80;61.40;;;;;;5427036;26;20549;-22
2024/04/20 09:45:56;;;;;;;0.90;0.70;;;23.80;61.30;;;;;;5428091;26;20839;-23
2024/04/20 09:48:30;;;;;;;1.20;0.70;;;23.80;61.20;;;;;;5428838;26;20460;-23
2024/04/20 09:51:16;;;;;;;1.47;0.70;;;23.90;61.20;;;;;;5430844;26;20535;-23
2024/04/20 09:53:55;;;;;;;2.23;0.80;;;23.90;61.00;;;;;;5416225;26;20471;-24
2024/04/20 09:56:25;;;;;;;1.40;0.63;;;24.00;60.90;;;;;;5439728;26;20571;-23
2024/04/20 09:58:55;;;;;;;0.90;0.60;;;24.00;60.70;;;;;;5434061;26;20770;-23
2024/04/20 10:01:26;;;;;;;2.33;0.70;;;24.00;60.50;;;;;;5422303;26;22480;-24
2024/04/20 10:03:55;;;;;;;1.10;0.60;;;23.80;60.70;;;;;;5432180;26;20472;-22
2024/04/20 10:06:30;;;;;;;1.10;0.80;;;24.10;60.90;;;;;;5428064;26;20907;-23
2024/04/20 10:09:05;;;;;;;3.23;0.70;;;24.10;60.90;;;;;;5439315;26;20868;-23
2024/04/20 10:11:34;;;;;;;1.20;0.70;;;24.10;61.00;;;;;;5427923;26;20462;-22
2024/04/20 10:14:10;;;;;;;1.40;0.87;;;24.20;61.60;;;;;;5439827;26;20526;-25
2024/04/20 10:16:47;;;;;;;1.00;0.70;;;24.20;61.40;;;;;;5433724;26;21301;-24
2024/04/20 10:19:24;;;;;;;1.00;0.70;;;24.30;61.50;;;;;;5434781;26;20632;-22
2024/04/20 10:22:00;;;;;;;0.90;0.60;;;24.60;61.20;;;;;;5430066;26;20466;-22
2024/04/20 10:24:34;;;;;;;0.90;0.60;;;24.60;61.10;;;;;;5419187;26;20584;-25
2024/04/20 10:27:04;;;;;;;1.47;0.90;;;24.60;61.60;;;;;;5432615;26;21248;-25
2024/04/20 10:29:40;;;;;;;1.00;0.60;;;24.60;62.00;;;;;;5422239;26;20837;-25
2024/04/20 10:32:24;;;;;;;1.27;0.77;;;24.60;62.40;;;;;;5417252;26;20510;-26
2024/04/20 10:35:12;;;;;;;0.90;0.60;;;24.50;62.70;;;;;;5445088;26;21329;-26
2024/04/20 10:37:46;;;;;;;2.10;0.73;;;24.50;62.50;;;;;;5431071;26;21404;-26
2024/04/20 10:40:17;;;;;;;1.10;0.77;;;24.50;62.60;;;;;;5421614;26;20471;-26
2024/04/20 10:42:46;;;;;;;1.87;0.73;;;24.50;62.70;;;;;;5429516;26;20463;-25
2024/04/20 10:45:20;;;;;;;2.20;0.77;;;24.50;62.70;;;;;;5431115;26;20527;-27
2024/04/20 10:47:49;;;;;;;1.00;0.70;;;24.60;63.00;;;;;;5425366;26;21075;-25
2024/04/20 10:50:18;;;;;;;1.00;0.70;;;24.40;62.70;;;;;;5429296;26;20484;-30
2024/04/20 10:52:49;;;;;;;1.93;0.70;;;24.50;62.90;;;;;;5423942;26;20726;-27
2024/04/20 10:55:18;;;;;;;1.17;0.60;;;24.30;62.50;;;;;;5426485;26;21064;-25
2024/04/20 10:57:50;;;;;;;1.00;0.63;;;24.90;63.20;;;;;;5407315;26;21313;-27
2024/04/20 11:00:40;;;;;;;2.93;0.80;;;24.50;62.80;;;;;;5427832;26;20459;-25
2024/04/20 11:03:08;;;;;;;1.93;0.60;;;24.50;62.80;;;;;;5414494;26;20479;-27
2024/04/20 11:05:39;;;;;;;1.27;1.10;;;24.50;62.70;;;;;;5431150;26;21083;-27
2024/04/20 11:08:14;;;;;;;1.70;0.70;;;24.50;62.50;;;;;;5431914;26;21888;-29
2024/04/20 11:10:44;;;;;;;2.70;1.10;;;24.60;62.60;;;;;;5417097;26;21118;-27
2024/04/20 11:13:15;;;;;;;1.03;0.70;;;25.00;63.00;;;;;;5434372;26;20512;-26
2024/04/20 11:15:44;;;;;;;1.27;0.80;;;24.70;62.60;;;;;;5430162;26;20494;-25
2024/04/20 11:18:14;;;;;;;1.13;0.60;;;24.70;62.30;;;;;;5414529;26;20487;-27
2024/04/20 11:20:47;;;;;;;1.10;0.70;;;24.60;62.30;;;;;;5431773;26;20516;-27
2024/04/20 11:23:24;;;;;;;1.40;0.63;;;24.80;62.30;;;;;;5426026;26;20547;-25
2024/04/20 11:25:55;;;;;;;1.27;0.60;;;24.50;62.20;;;;;;5414716;26;20607;-27
2024/04/20 11:28:24;;;;;;;1.10;0.70;;;24.70;62.40;;;;;;5426009;26;20460;-25
2024/04/20 11:30:53;;;;;;;2.13;0.70;;;24.60;62.20;;;;;;5407263;26;20563;-25
2024/04/20 11:33:21;;;;;;;1.00;0.63;;;24.80;62.50;;;;;;5413284;26;20580;-26
2024/04/20 11:35:59;;;;;;;1.00;0.60;;;24.50;62.20;;;;;;5422683;26;20515;-26
2024/04/20 11:38:37;;;;;;;0.90;0.60;;;24.80;62.60;;;;;;5416670;26;20463;-26
2024/04/20 11:41:24;;;;;;;1.00;0.60;;;24.70;62.60;;;;;;5431907;26;20451;-29
2024/04/20 11:43:53;;;;;;;1.57;0.60;;;24.90;63.00;;;;;;5425251;26;20458;-27
2024/04/20 11:46:25;;;;;;;1.00;0.70;;;24.70;62.80;;;;;;5408773;26;20479;-29
2024/04/20 11:48:56;;;;;;;0.90;0.60;;;24.70;62.80;;;;;;5428884;26;21026;-25
2024/04/20 11:54:22;;;;;;;1.20;0.70;;;24.70;63.00;;;;;;5142590;26;21310;-30
2024/04/20 11:56:51;;;;;;;1.23;0.77;;;24.80;63.30;;;;;;5136481;26;22650;-28
2024/04/20 11:59:27;;;;;;;1.00;0.70;;;24.60;63.40;;;;;;5139208;26;21565;-26
2024/04/20 12:02:00;;;;;;;1.00;0.60;;;24.80;63.70;;;;;;5151807;26;20927;-26
2024/04/20 12:04:31;;;;;;;0.90;0.63;;;24.80;64.70;;;;;;5168586;26;20921;-27
2024/04/20 12:07:04;;;;;;;1.20;0.70;;;24.80;63.80;;;;;;5157363;26;27773;-26
2024/04/20 12:09:35;;;;;;;1.93;0.60;;;24.70;63.60;;;;;;5371150;26;21122;-25
2024/04/20 12:12:07;;;;;;;1.33;0.80;;;24.70;64.00;;;;;;5416438;26;20467;-24
2024/04/20 12:14:45;;;;;;;1.00;0.60;;;25.00;65.60;;;;;;5374940;26;23018;-27
2024/04/20 12:17:18;;;;;;;1.30;0.70;;;24.80;64.70;;;;;;5427846;26;21149;-27
2024/04/20 12:19:51;;;;;;;1.37;0.63;;;24.80;64.90;;;;;;5416610;26;20581;-26
2024/04/20 12:22:22;;;;;;;1.20;0.70;;;24.90;65.50;;;;;;5426824;26;21063;-23
2024/04/20 12:24:57;;;;;;;1.20;0.90;;;25.30;66.50;;;;;;5437370;26;22397;-23
2024/04/20 12:27:50;;;;;;;1.07;0.60;;;25.60;67.60;;;;;;5409096;26;20593;-26
2024/04/20 12:30:24;;;;;;;1.00;0.60;;;25.20;68.20;;;;;;5432912;26;20983;-25
2024/04/20 12:33:02;;;;;;;0.90;0.60;;;25.00;68.60;;;;;;5405711;26;20522;-23
2024/04/20 12:35:39;;;;;;;1.10;0.60;;;25.00;71.20;;;;;;5430724;26;20601;-24
2024/04/20 12:38:13;;;;;;;0.87;0.60;;;24.80;72.20;;;;;;5431759;26;20511;-25
2024/04/20 12:40:46;;;;;;;1.00;0.70;;;24.80;73.90;;;;;;5421324;26;20472;-23
2024/04/20 12:43:16;;;;;;;1.10;0.70;;;24.70;76.20;;;;;;5413020;26;21034;-25
2024/04/20 12:45:47;;;;;;;0.90;0.60;;;25.30;80.10;;;;;;5421804;26;21168;-25
2024/04/20 12:48:17;;;;;;;1.17;0.70;;;25.20;79.50;;;;;;5450459;26;21542;-24
2024/04/20 12:50:46;;;;;;;1.20;0.60;;;25.40;80.00;;;;;;5432525;26;20471;-26
2024/04/20 12:53:17;;;;;;;0.90;0.63;;;25.20;80.00;;;;;;5419548;26;20876;-25
2024/04/20 12:55:50;;;;;;;1.20;0.70;;;24.80;80.80;;;;;;5439428;26;21058;-23
2024/04/20 12:58:18;;;;;;;1.40;0.60;;;25.00;80.80;;;;;;5440997;26;20485;-24
2024/04/20 13:00:52;;;;;;;1.20;0.60;;;24.90;80.70;;;;;;5428499;26;20591;-26
2024/04/20 13:03:29;;;;;;;0.90;0.60;;;25.40;81.20;;;;;;5430747;26;20955;-25
2024/04/20 13:06:02;;;;;;;1.10;0.60;;;24.70;81.90;;;;;;5439068;26;20452;-25
2024/04/20 13:08:35;;;;;;;1.00;0.60;;;25.30;83.20;;;;;;5416604;26;20497;-26
2024/04/20 13:11:16;;;;;;;0.90;0.60;;;24.90;82.00;;;;;;5418521;26;21345;-26
2024/04/20 13:13:51;;;;;;;1.13;0.60;;;25.00;86.20;;;;;;5432127;26;21110;-27
2024/04/20 13:16:19;;;;;;;1.00;0.70;;;24.80;85.00;;;;;;5422486;26;21532;-27
2024/04/20 13:18:49;;;;;;;1.03;0.73;;;25.10;86.00;;;;;;5413561;26;20452;-25